Time;durP1;ratioP1;P1;durP2;ratioP2;P2;SDS_P1;SDS_P2;PMS_P1;PMS_P2;Temp;Humidity;BMP_temperature;BMP_pressure;BME280_temperature;BME280_humidity;BME280_pressure;Samples;Min_cycle;Max_cycle;Signal;HPM_P1;HPM_P2
2022/08/16 00:01:35;;;;;;;;;30.67;29.33;;;;;24.07;69.53;100113.48;110529;1265;14664;-48
2022/08/16 00:04:03;;;;;;;;;30.00;28.00;;;;;24.15;69.38;100107.65;110527;1263;13146;-50
2022/08/16 00:06:30;;;;;;;;;34.33;28.67;;;;;24.16;69.13;100108.78;110514;1264;14610;-47
2022/08/16 00:08:57;;;;;;;;;28.00;25.33;;;;;24.00;69.69;100111.55;110517;1264;15062;-47
2022/08/16 00:11:25;;;;;;;;;30.00;27.33;;;;;23.90;70.02;100109.48;110412;1264;13701;-51
2022/08/16 00:13:52;;;;;;;;;30.00;29.00;;;;;23.83;70.36;100108.05;110503;1264;14033;-48
2022/08/16 00:16:19;;;;;;;;;29.00;25.67;;;;;23.72;70.81;100109.48;110519;1265;14833;-53
2022/08/16 00:18:46;;;;;;;;;31.33;28.00;;;;;23.81;70.69;100109.60;110572;1265;13296;-48
2022/08/16 00:21:14;;;;;;;;;34.00;26.67;;;;;23.84;70.61;100108.34;110501;1264;14317;-47
2022/08/16 00:23:41;;;;;;;;;29.67;27.00;;;;;23.77;70.82;100106.70;110543;1265;13212;-47
2022/08/16 00:26:08;;;;;;;;;33.50;32.00;;;;;23.80;70.81;100101.05;110484;1263;14720;-47
2022/08/16 00:28:35;;;;;;;;;30.67;28.33;;;;;23.72;71.01;100102.16;110497;1264;14967;-48
2022/08/16 00:31:03;;;;;;;;;33.00;30.50;;;;;23.52;71.66;100098.64;110592;1264;13103;-47
2022/08/16 00:33:30;;;;;;;;;32.67;30.33;;;;;23.66;71.45;100098.26;110443;1264;14688;-48
2022/08/16 00:35:57;;;;;;;;;31.33;29.33;;;;;23.61;71.50;100096.92;110478;1264;14170;-48
2022/08/16 00:38:24;;;;;;;;;39.00;36.00;;;;;23.59;71.59;100094.98;110387;1264;14494;-47
2022/08/16 00:40:52;;;;;;;;;39.50;34.00;;;;;23.67;71.49;100095.89;110433;1264;15096;-49
2022/08/16 00:43:19;;;;;;;;;40.00;35.33;;;;;23.66;71.40;100093.79;110544;1264;14346;-51
2022/08/16 00:45:46;;;;;;;;;37.00;34.50;;;;;23.73;71.26;100093.40;110573;1264;13196;-47
2022/08/16 00:48:14;;;;;;;;;33.67;33.00;;;;;23.84;70.95;100095.33;110530;1264;15385;-49
2022/08/16 00:50:41;;;;;;;;;35.33;33.00;;;;;23.90;70.69;100098.69;110514;1264;23942;-48
2022/08/16 00:53:08;;;;;;;;;36.67;35.33;;;;;23.82;70.89;100100.17;110514;1264;13232;-48
2022/08/16 00:55:36;;;;;;;;;38.00;34.00;;;;;23.76;71.10;100100.69;110523;1265;14671;-48
2022/08/16 00:58:03;;;;;;;;;33.00;32.33;;;;;23.59;71.72;100100.21;110530;1264;13183;-49
2022/08/16 01:00:30;;;;;;;;;37.67;35.67;;;;;23.62;71.81;100098.59;110504;1262;13682;-47
2022/08/16 01:02:57;;;;;;;;;38.00;33.67;;;;;23.51;72.11;100098.05;110429;1264;14371;-48
2022/08/16 01:05:26;;;;;;;;;37.67;33.00;;;;;23.65;71.92;100096.02;110484;1265;14061;-45
2022/08/16 01:07:53;;;;;;;;;35.67;32.67;;;;;23.57;72.00;100096.38;110494;1264;15116;-44
2022/08/16 01:10:20;;;;;;;;;39.00;36.00;;;;;23.52;72.24;100096.88;110472;1264;14941;-51
2022/08/16 01:12:47;;;;;;;;;38.00;33.67;;;;;23.57;72.26;100101.70;110542;1265;11600;-48
2022/08/16 01:15:15;;;;;;;;;38.50;34.00;;;;;23.72;71.77;100107.38;110518;1265;21055;-46
2022/08/16 01:17:42;;;;;;;;;37.33;32.00;;;;;23.50;72.26;100104.46;110515;1264;15056;-48
2022/08/16 01:20:10;;;;;;;;;39.00;34.00;;;;;23.32;73.14;100101.58;110525;1265;15036;-47
2022/08/16 01:22:37;;;;;;;;;35.33;33.33;;;;;23.39;73.12;100100.23;110509;1264;14668;-49
2022/08/16 01:25:04;;;;;;;;;38.67;34.00;;;;;23.53;72.69;100092.70;110580;1264;13206;-50
2022/08/16 01:27:32;;;;;;;;;40.67;35.00;;;;;23.40;73.04;100096.50;110529;1265;14608;-47
2022/08/16 01:29:59;;;;;;;;;39.33;35.00;;;;;23.24;73.58;100095.52;110535;1263;14816;-49
2022/08/16 01:32:26;;;;;;;;;39.67;37.00;;;;;23.15;74.19;100094.38;110466;1264;13109;-46
2022/08/16 01:34:53;;;;;;;;;38.33;35.33;;;;;23.27;73.91;100093.73;110530;1264;15054;-48
2022/08/16 01:37:21;;;;;;;;;34.00;33.00;;;;;23.26;73.87;100090.89;110507;1264;13713;-50
2022/08/16 01:39:48;;;;;;;;;35.67;34.33;;;;;23.40;73.63;100093.05;110560;1264;13085;-50
2022/08/16 01:42:15;;;;;;;;;39.67;36.33;;;;;23.21;73.98;100088.20;110389;1264;15174;-50
2022/08/16 01:44:42;;;;;;;;;44.67;38.00;;;;;23.18;74.25;100088.19;110502;1264;14483;-46
2022/08/16 01:47:10;;;;;;;;;34.67;31.67;;;;;23.19;74.41;100089.38;110496;1264;14775;-47
2022/08/16 01:49:37;;;;;;;;;39.00;36.33;;;;;23.34;74.05;100085.52;110545;1264;14897;-49
2022/08/16 01:52:04;;;;;;;;;43.00;36.00;;;;;23.30;73.98;100089.17;110549;1265;13482;-49
2022/08/16 01:54:31;;;;;;;;;36.00;33.33;;;;;23.34;73.98;100090.57;110497;1264;15098;-48
2022/08/16 01:56:58;;;;;;;;;43.50;38.50;;;;;23.28;74.23;100088.66;110512;1265;15201;-48
2022/08/16 01:59:26;;;;;;;;;34.00;33.00;;;;;23.36;73.97;100095.86;110507;1264;14671;-48
2022/08/16 02:01:54;;;;;;;;;37.33;33.00;;;;;23.46;73.74;100099.61;110499;1264;14729;-48
2022/08/16 02:04:21;;;;;;;;;37.00;35.00;;;;;23.45;73.68;100097.64;110553;1264;14815;-48
2022/08/16 02:06:48;;;;;;;;;40.00;36.67;;;;;23.38;73.95;100099.06;110555;1264;13107;-47
2022/08/16 02:09:15;;;;;;;;;40.00;35.50;;;;;23.41;73.86;100096.50;110497;1264;15149;-48
2022/08/16 02:11:43;;;;;;;;;34.00;32.00;;;;;23.29;74.25;100094.77;110503;1264;13871;-48
2022/08/16 02:14:10;;;;;;;;;43.00;37.00;;;;;23.24;74.52;100094.30;110515;1263;15156;-47
2022/08/16 02:16:38;;;;;;;;;38.33;34.00;;;;;23.25;74.60;100096.06;110507;1264;14855;-48
2022/08/16 02:19:05;;;;;;;;;42.00;37.00;;;;;23.30;74.57;100093.89;110565;1264;10481;-49
2022/08/16 02:21:33;;;;;;;;;39.33;36.33;;;;;23.20;74.79;100096.44;110499;1265;14501;-48
2022/08/16 02:24:00;;;;;;;;;36.00;34.00;;;;;23.09;75.34;100090.84;110504;1265;14886;-47
2022/08/16 02:26:28;;;;;;;;;37.50;33.50;;;;;22.96;75.85;100087.14;110511;1264;15521;-48
2022/08/16 02:28:56;;;;;;;;;38.00;35.00;;;;;23.03;75.93;100087.49;110515;1264;16847;-49
2022/08/16 02:31:23;;;;;;;;;41.00;36.50;;;;;23.15;75.59;100090.77;110523;1265;14451;-50
2022/08/16 02:33:50;;;;;;;;;38.67;33.33;;;;;23.07;75.65;100094.04;110482;1264;13097;-48
2022/08/16 02:36:18;;;;;;;;;37.67;34.00;;;;;22.86;76.57;100097.45;110531;1263;15288;-48
2022/08/16 02:38:46;;;;;;;;;36.50;34.00;;;;;22.85;76.88;100091.61;110519;1265;14419;-49
2022/08/16 02:41:14;;;;;;;;;43.00;37.00;;;;;22.87;76.98;100090.06;110495;1264;15002;-47
2022/08/16 02:43:41;;;;;;;;;40.33;36.33;;;;;23.00;76.63;100099.27;110529;1265;14595;-47
2022/08/16 02:46:08;;;;;;;;;38.00;33.00;;;;;22.98;76.53;100099.34;110558;1263;13092;-50
2022/08/16 02:48:37;;;;;;;;;36.00;36.00;;;;;22.96;76.71;100099.09;110500;1264;14654;-48
2022/08/16 02:51:04;;;;;;;;;36.50;32.50;;;;;22.96;76.74;100092.63;110545;1263;13157;-48
2022/08/16 02:53:31;;;;;;;;;34.00;33.00;;;;;22.99;76.65;100093.84;110534;1264;14469;-49
2022/08/16 02:55:59;;;;;;;;;40.33;35.00;;;;;22.99;76.62;100094.14;110502;1264;14574;-48
2022/08/16 02:58:26;;;;;;;;;40.00;37.00;;;;;22.91;76.95;100096.56;110545;1265;14129;-47
2022/08/16 03:00:54;;;;;;;;;40.00;37.00;;;;;22.92;77.07;100093.04;110520;1264;13209;-48
2022/08/16 03:03:21;;;;;;;;;42.00;37.00;;;;;23.02;76.79;100095.73;110527;1264;14612;-48
2022/08/16 03:05:50;;;;;;;;;39.00;34.33;;;;;23.06;76.66;100100.08;110523;1264;14467;-48
2022/08/16 03:08:17;;;;;;;;;41.00;37.00;;;;;23.05;76.57;100097.42;110504;1264;14413;-47
2022/08/16 03:10:44;;;;;;;;;40.67;35.67;;;;;22.95;76.80;100092.40;110532;1264;14079;-48
2022/08/16 03:13:12;;;;;;;;;39.33;35.00;;;;;22.91;77.12;100092.19;110568;1264;13109;-48
2022/08/16 03:15:39;;;;;;;;;39.00;36.67;;;;;23.09;76.65;100101.72;110504;1264;14330;-48
2022/08/16 03:18:07;;;;;;;;;46.00;38.00;;;;;23.04;76.68;100108.56;110507;1264;14294;-49
2022/08/16 03:20:34;;;;;;;;;37.50;37.00;;;;;22.91;77.13;100106.86;110531;1265;14371;-48
2022/08/16 03:23:01;;;;;;;;;44.33;38.67;;;;;22.88;77.35;100108.23;110508;1264;14525;-45
2022/08/16 03:25:28;;;;;;;;;37.67;36.67;;;;;22.84;77.64;100106.15;110464;1264;13607;-43
2022/08/16 03:27:56;;;;;;;;;41.33;36.67;;;;;22.88;77.63;100099.40;110552;1264;13112;-47
2022/08/16 03:30:23;;;;;;;;;43.33;37.33;;;;;22.91;77.42;100097.30;110437;1264;15073;-47
2022/08/16 03:32:50;;;;;;;;;40.50;37.00;;;;;22.91;77.53;100096.27;110476;1265;15217;-46
2022/08/16 03:35:17;;;;;;;;;37.50;33.00;;;;;22.92;77.46;100094.63;110522;1264;13299;-47
2022/08/16 03:37:44;;;;;;;;;37.67;35.67;;;;;22.90;77.42;100095.45;110528;1264;14345;-48
2022/08/16 03:40:12;;;;;;;;;41.67;36.67;;;;;22.96;77.39;100105.56;110545;1264;13252;-47
2022/08/16 03:42:39;;;;;;;;;38.00;36.33;;;;;22.93;77.33;100106.11;110508;1264;14469;-46
2022/08/16 03:45:06;;;;;;;;;38.33;35.00;;;;;22.88;77.62;100113.79;110513;1265;13716;-52
2022/08/16 03:47:34;;;;;;;;;35.00;32.00;;;;;22.90;77.64;100120.60;110521;1263;13567;-50
2022/08/16 03:50:01;;;;;;;;;36.67;34.67;;;;;22.92;77.56;100124.18;110523;1265;13585;-49
2022/08/16 03:52:28;;;;;;;;;44.00;38.33;;;;;22.85;77.75;100127.63;110524;1265;14237;-46
2022/08/16 03:54:55;;;;;;;;;40.00;37.33;;;;;22.85;77.91;100125.58;110556;1264;13095;-47
2022/08/16 03:57:22;;;;;;;;;40.50;35.00;;;;;22.89;77.89;100129.30;110521;1265;14127;-49
2022/08/16 03:59:50;;;;;;;;;42.00;36.00;;;;;22.81;78.03;100137.40;110503;1264;14485;-46
2022/08/16 04:02:17;;;;;;;;;40.33;37.00;;;;;22.75;78.43;100143.60;110514;1264;13852;-48
2022/08/16 04:04:45;;;;;;;;;41.50;36.50;;;;;22.62;78.83;100141.40;110502;1264;14359;-48
2022/08/16 04:07:12;;;;;;;;;41.33;36.33;;;;;22.59;79.28;100142.02;110524;1264;13202;-47
2022/08/16 04:09:40;;;;;;;;;43.67;36.33;;;;;22.64;79.35;100142.92;110542;1264;14937;-48
2022/08/16 04:12:07;;;;;;;;;42.33;37.00;;;;;22.75;79.01;100149.31;110543;1264;13598;-50
2022/08/16 04:14:35;;;;;;;;;40.67;36.67;;;;;22.82;78.67;100147.33;110528;1264;13907;-48
2022/08/16 04:17:02;;;;;;;;;39.67;36.67;;;;;22.59;79.24;100147.27;110520;1264;14328;-48
2022/08/16 04:19:29;;;;;;;;;36.67;34.33;;;;;22.44;80.36;100144.80;110519;1264;14491;-48
2022/08/16 04:21:56;;;;;;;;;37.67;34.67;;;;;22.59;80.19;100147.10;110550;1265;13212;-48
2022/08/16 04:24:24;;;;;;;;;42.33;38.00;;;;;22.64;79.82;100150.82;110522;1264;16698;-48
2022/08/16 04:26:51;;;;;;;;;48.67;37.00;;;;;22.61;80.05;100150.98;110517;1264;14472;-48
2022/08/16 04:29:18;;;;;;;;;45.50;39.50;;;;;22.70;79.74;100152.98;110471;1264;14827;-49
2022/08/16 04:31:45;;;;;;;;;45.00;40.00;;;;;22.41;80.30;100156.38;110492;1264;13828;-48
2022/08/16 04:34:13;;;;;;;;;41.33;38.00;;;;;22.31;81.17;100152.60;110542;1264;13181;-47
2022/08/16 04:36:40;;;;;;;;;42.33;34.33;;;;;22.40;81.11;100155.97;110492;1264;14128;-47
2022/08/16 04:39:08;;;;;;;;;47.00;39.00;;;;;22.42;81.10;100152.58;110505;1264;14391;-47
2022/08/16 04:41:35;;;;;;;;;44.33;38.00;;;;;22.45;80.89;100150.69;110524;1264;14710;-47
2022/08/16 04:44:02;;;;;;;;;47.00;38.67;;;;;22.46;80.99;100153.42;110426;1264;14767;-48
2022/08/16 04:46:30;;;;;;;;;46.33;40.33;;;;;22.45;80.87;100159.09;110498;1264;13275;-48
2022/08/16 04:48:58;;;;;;;;;43.67;38.67;;;;;22.46;80.91;100160.86;110519;1265;15272;-46
2022/08/16 04:51:25;;;;;;;;;44.67;39.00;;;;;22.41;81.13;100161.09;110494;1264;13782;-48
2022/08/16 04:53:52;;;;;;;;;39.33;37.67;;;;;22.56;81.04;100154.02;110403;1264;14653;-44
2022/08/16 04:56:19;;;;;;;;;49.33;39.00;;;;;22.72;80.24;100155.57;110500;1265;13590;-46
2022/08/16 04:58:47;;;;;;;;;47.33;40.33;;;;;22.61;80.48;100155.42;110418;1264;18202;-47
2022/08/16 05:01:14;;;;;;;;;39.00;36.00;;;;;22.86;79.94;100157.16;110492;1265;13616;-48
2022/08/16 05:03:41;;;;;;;;;39.33;34.67;;;;;22.96;79.40;100156.27;110452;1265;14028;-49
2022/08/16 05:06:09;;;;;;;;;40.00;37.00;;;;;23.09;78.94;100154.88;110407;1264;14710;-48
2022/08/16 05:08:36;;;;;;;;;44.00;38.67;;;;;23.17;78.56;100153.47;110451;1264;14471;-47
2022/08/16 05:11:04;;;;;;;;;41.50;37.50;;;;;23.13;78.32;100156.61;110496;1264;14442;-47
2022/08/16 05:13:31;;;;;;;;;48.50;40.50;;;;;22.98;78.84;100165.19;110523;1264;13961;-46
2022/08/16 05:15:58;;;;;;;;;46.33;40.33;;;;;22.80;79.51;100170.03;109673;1264;1139722;-46
2022/08/16 05:18:26;;;;;;;;;45.00;39.00;;;;;22.67;80.33;100167.89;110505;1264;14381;-48
2022/08/16 05:20:53;;;;;;;;;42.00;38.67;;;;;22.75;80.42;100165.91;110342;1264;14147;-47
2022/08/16 05:23:21;;;;;;;;;44.00;40.00;;;;;22.87;80.10;100170.73;110487;1264;13608;-45
2022/08/16 05:25:48;;;;;;;;;46.33;40.00;;;;;23.03;79.52;100164.45;110450;1264;13739;-46
2022/08/16 05:28:16;;;;;;;;;44.00;37.00;;;;;23.13;79.27;100171.21;110509;1264;13167;-48
2022/08/16 05:30:43;;;;;;;;;41.67;36.67;;;;;23.36;78.51;100167.55;110507;1264;14332;-48
2022/08/16 05:33:10;;;;;;;;;46.67;37.00;;;;;23.37;78.15;100163.48;110457;1264;13853;-49
2022/08/16 05:35:38;;;;;;;;;41.33;35.33;;;;;23.34;78.34;100163.34;110512;1265;13923;-51
2022/08/16 05:38:05;;;;;;;;;40.67;37.00;;;;;23.50;78.03;100162.98;110520;1264;14121;-51
2022/08/16 05:40:32;;;;;;;;;42.67;37.33;;;;;23.75;77.25;100162.10;110480;1265;14546;-48
2022/08/16 05:42:59;;;;;;;;;46.33;37.00;;;;;23.96;76.18;100165.38;110539;1264;13106;-48
2022/08/16 05:45:27;;;;;;;;;44.33;37.33;;;;;23.95;76.12;100169.05;110471;1264;14305;-47
2022/08/16 05:47:54;;;;;;;;;37.00;34.33;;;;;24.09;75.53;100167.60;110372;1265;14762;-48
2022/08/16 05:50:21;;;;;;;;;42.00;38.67;;;;;24.01;75.50;100166.13;110430;1264;14642;-46
2022/08/16 05:52:49;;;;;;;;;46.33;39.67;;;;;23.98;75.66;100168.61;110450;1264;14874;-46
2022/08/16 05:55:16;;;;;;;;;39.50;36.00;;;;;24.05;75.42;100171.23;110534;1264;11227;-48
2022/08/16 05:57:44;;;;;;;;;44.00;39.00;;;;;24.12;75.15;100172.53;110481;1264;13221;-47
2022/08/16 06:00:11;;;;;;;;;40.00;36.00;;;;;24.21;74.99;100169.05;110474;1265;13331;-50
2022/08/16 06:02:39;;;;;;;;;40.50;36.00;;;;;24.26;74.64;100166.55;110415;1265;14251;-49
2022/08/16 06:05:06;;;;;;;;;44.67;39.00;;;;;24.25;74.44;100165.21;110482;1264;14078;-49
2022/08/16 06:07:33;;;;;;;;;46.00;39.00;;;;;24.27;74.39;100166.60;110459;1264;14302;-49
2022/08/16 06:10:00;;;;;;;;;44.67;38.67;;;;;24.27;74.25;100159.85;110525;1264;14906;-47
2022/08/16 06:12:28;;;;;;;;;43.00;36.00;;;;;24.33;74.18;100161.88;110521;1262;14187;-48
2022/08/16 06:14:57;;;;;;;;;36.67;33.33;;;;;24.43;73.81;100158.88;110500;1264;13222;-49
2022/08/16 06:17:24;;;;;;;;;37.50;33.50;;;;;24.52;73.42;100163.23;110526;1264;14726;-48
2022/08/16 06:19:51;;;;;;;;;39.67;36.00;;;;;24.70;72.82;100160.77;110452;1264;14148;-47
2022/08/16 06:22:19;;;;;;;;;43.00;35.00;;;;;24.83;72.37;100163.89;110473;1264;13476;-48
2022/08/16 06:24:46;;;;;;;;;40.67;37.00;;;;;24.81;72.23;100170.63;110446;1263;13987;-49
2022/08/16 06:27:13;;;;;;;;;33.33;33.00;;;;;24.80;72.14;100171.98;110484;1264;18232;-46
2022/08/16 06:29:40;;;;;;;;;36.00;35.00;;;;;24.82;72.29;100169.02;110459;1264;14369;-48
2022/08/16 06:32:08;;;;;;;;;36.00;35.00;;;;;25.00;71.79;100172.90;110514;1265;13737;-48
2022/08/16 06:34:35;;;;;;;;;38.33;33.00;;;;;25.13;71.32;100178.89;110489;1264;14995;-47
2022/08/16 06:37:02;;;;;;;;;39.00;34.00;;;;;25.18;70.94;100178.78;110444;1264;13119;-47
2022/08/16 06:39:29;;;;;;;;;37.67;33.67;;;;;25.24;70.61;100176.76;110453;1264;14608;-48
2022/08/16 06:41:57;;;;;;;;;36.67;33.00;;;;;25.25;70.56;100175.11;110488;1265;14395;-48
2022/08/16 06:44:24;;;;;;;;;39.50;35.00;;;;;25.38;70.29;100177.35;110481;1264;13695;-48
2022/08/16 06:46:51;;;;;;;;;44.33;35.00;;;;;25.57;70.13;100177.14;110535;1264;14805;-48
2022/08/16 06:49:18;;;;;;;;;36.00;33.33;;;;;25.56;70.18;100178.02;110533;1264;13920;-48
2022/08/16 06:51:46;;;;;;;;;35.00;33.67;;;;;25.50;70.48;100175.45;110425;1264;13908;-47
2022/08/16 06:54:13;;;;;;;;;38.00;34.33;;;;;25.57;70.47;100178.02;110498;1263;13284;-48
2022/08/16 06:56:41;;;;;;;;;40.33;34.33;;;;;25.58;70.54;100180.84;110397;1262;13447;-48
2022/08/16 06:59:08;;;;;;;;;40.00;34.50;;;;;25.68;70.24;100182.83;110446;1264;13612;-48
2022/08/16 07:01:35;;;;;;;;;39.67;35.00;;;;;25.65;70.20;100181.85;110431;1264;14471;-47
2022/08/16 07:04:03;;;;;;;;;40.00;35.00;;;;;25.67;70.06;100181.03;110467;1264;11388;-47
2022/08/16 07:06:30;;;;;;;;;37.00;34.33;;;;;25.76;69.86;100185.28;110408;1264;14655;-48
2022/08/16 07:08:57;;;;;;;;;37.00;35.00;;;;;25.84;69.64;100186.41;110325;1265;14179;-48
2022/08/16 07:11:25;;;;;;;;;39.33;35.00;;;;;25.85;69.76;100188.91;110496;1264;15680;-43
2022/08/16 07:13:53;;;;;;;;;43.33;34.33;;;;;25.99;69.46;100191.09;110287;1264;15028;-47
2022/08/16 07:16:20;;;;;;;;;36.33;33.67;;;;;25.98;69.24;100190.30;110477;1265;13245;-48
2022/08/16 07:18:48;;;;;;;;;38.00;34.50;;;;;25.89;69.19;100192.48;110470;1264;15207;-48
2022/08/16 07:21:15;;;;;;;;;33.33;33.00;;;;;25.87;69.34;100193.52;110445;1264;15106;-51
2022/08/16 07:23:45;;;;;;;;;36.50;35.00;;;;;25.96;69.15;100200.96;110468;1265;15151;-48
2022/08/16 07:26:12;;;;;;;;;32.33;32.00;;;;;26.00;69.05;100205.23;110475;1265;15167;-48
2022/08/16 07:28:39;;;;;;;;;38.00;32.00;;;;;26.12;68.70;100204.08;110469;1264;14306;-47
2022/08/16 07:31:06;;;;;;;;;38.00;35.00;;;;;26.18;68.60;100202.88;110509;1263;13731;-47
2022/08/16 07:33:36;;;;;;;;;44.50;37.00;;;;;26.14;68.58;100206.02;110406;1262;15051;-49
2022/08/16 07:36:03;;;;;;;;;43.00;37.00;;;;;26.18;68.47;100211.77;110466;1264;14841;-51
2022/08/16 07:38:30;;;;;;;;;33.00;32.00;;;;;26.15;68.51;100211.48;110508;1264;14986;-49
2022/08/16 07:40:57;;;;;;;;;38.50;34.50;;;;;26.14;68.41;100212.55;110473;1264;14799;-47
2022/08/16 07:43:25;;;;;;;;;38.33;36.00;;;;;26.18;68.29;100210.20;110495;1264;10471;-48
2022/08/16 07:45:52;;;;;;;;;38.00;34.67;;;;;26.37;67.85;100209.97;110483;1265;14764;-48
2022/08/16 07:48:19;;;;;;;;;40.00;36.33;;;;;26.42;67.61;100209.45;110510;1264;15233;-48
2022/08/16 07:50:46;;;;;;;;;38.33;34.67;;;;;26.44;67.38;100208.91;110482;1265;14491;-48
2022/08/16 07:53:14;;;;;;;;;37.00;35.00;;;;;26.43;67.31;100211.97;110378;1264;14839;-47
2022/08/16 07:55:41;;;;;;;;;35.50;34.50;;;;;26.43;67.32;100203.17;110433;1264;14643;-49
2022/08/16 07:58:08;;;;;;;;;40.33;32.67;;;;;26.43;67.41;100202.48;110463;1265;13210;-46
2022/08/16 08:00:36;;;;;;;;;39.00;35.33;;;;;26.48;66.92;100205.86;110420;1264;15030;-48
2022/08/16 08:03:03;;;;;;;;;42.00;35.50;;;;;26.46;66.40;100207.67;110480;1264;15376;-49
2022/08/16 08:05:31;;;;;;;;;36.50;35.00;;;;;26.55;66.07;100214.80;110537;1262;13170;-49
2022/08/16 08:07:58;;;;;;;;;40.00;32.67;;;;;26.49;65.86;100214.52;110471;1264;15076;-48
2022/08/16 08:10:25;;;;;;;;;39.00;35.00;;;;;26.51;65.86;100214.34;110493;1264;10654;-50
2022/08/16 08:12:53;;;;;;;;;38.33;33.67;;;;;26.61;65.62;100214.21;110415;1263;14898;-47
2022/08/16 08:15:20;;;;;;;;;39.67;35.00;;;;;26.53;65.53;100216.35;110386;1264;13322;-48
2022/08/16 08:17:49;;;;;;;;;44.00;37.00;;;;;26.58;65.34;100219.08;110381;1264;15185;-49
2022/08/16 08:20:16;;;;;;;;;39.33;35.00;;;;;26.53;64.49;100223.27;110397;1264;15553;-49
2022/08/16 08:22:45;;;;;;;;;42.00;35.00;;;;;26.46;63.94;100221.11;110368;1264;15152;-47
2022/08/16 08:25:12;;;;;;;;;36.00;31.50;;;;;26.53;63.87;100217.48;110396;1265;11676;-48
2022/08/16 08:27:41;;;;;;;;;35.50;34.00;;;;;26.59;63.68;100217.30;110407;1264;13059;-49
2022/08/16 08:30:09;;;;;;;;;35.33;32.33;;;;;26.56;63.78;100217.52;110438;1265;15892;-48
2022/08/16 08:32:36;;;;;;;;;34.00;32.00;;;;;26.60;63.46;100214.52;110455;1264;15153;-47
2022/08/16 08:35:03;;;;;;;;;37.00;34.00;;;;;26.61;63.10;100219.94;110477;1264;15567;-47
2022/08/16 08:37:30;;;;;;;;;38.50;36.00;;;;;26.63;63.00;100213.52;110468;1264;21491;-50
2022/08/16 08:39:58;;;;;;;;;33.50;30.50;;;;;26.66;62.92;100215.90;110511;1264;12068;-47
2022/08/16 08:42:25;;;;;;;;;34.00;31.67;;;;;26.70;62.94;100209.92;110480;1264;15112;-50
2022/08/16 08:44:52;;;;;;;;;37.33;32.33;;;;;26.69;62.97;100210.71;110432;1265;15582;-48
2022/08/16 08:47:19;;;;;;;;;33.67;30.67;;;;;26.73;62.86;100212.66;110421;1264;14363;-48
2022/08/16 08:49:47;;;;;;;;;36.00;33.50;;;;;26.76;62.80;100210.45;110449;1265;14906;-48
2022/08/16 08:52:14;;;;;;;;;32.67;29.67;;;;;26.82;62.71;100207.67;110454;1265;13207;-48
2022/08/16 08:54:41;;;;;;;;;38.67;34.67;;;;;26.83;62.73;100213.08;110411;1264;14153;-48
2022/08/16 08:57:08;;;;;;;;;33.00;31.00;;;;;26.84;62.78;100213.58;110467;1264;15293;-49
2022/08/16 08:59:36;;;;;;;;;42.00;33.67;;;;;26.86;62.48;100214.35;110475;1264;13237;-47
2022/08/16 09:02:03;;;;;;;;;36.50;34.50;;;;;26.92;62.46;100210.85;110405;1264;15181;-47
2022/08/16 09:04:30;;;;;;;;;38.00;31.33;;;;;27.01;62.29;100209.14;110497;1265;15382;-53
2022/08/16 09:06:58;;;;;;;;;39.67;34.00;;;;;27.10;62.01;100214.92;110354;1264;11903;-47
2022/08/16 09:09:25;;;;;;;;;39.00;34.00;;;;;27.14;62.11;100211.48;110422;1265;12254;-48
2022/08/16 09:11:52;;;;;;;;;38.33;34.33;;;;;27.12;62.03;100212.49;110424;1264;14411;-49
2022/08/16 09:14:19;;;;;;;;;41.67;35.00;;;;;27.39;61.68;100212.80;110478;1264;15138;-46
2022/08/16 09:16:47;;;;;;;;;37.33;35.33;;;;;27.44;61.23;100212.98;110495;1265;15301;-47
2022/08/16 09:19:14;;;;;;;;;35.33;33.00;;;;;27.11;61.72;100211.70;110556;1264;10399;-49
2022/08/16 09:21:41;;;;;;;;;35.33;32.00;;;;;27.03;62.28;100211.61;110524;1265;14846;-49
2022/08/16 09:24:08;;;;;;;;;36.50;33.00;;;;;27.04;62.26;100216.26;110470;1264;14708;-47
2022/08/16 09:26:39;;;;;;;;;41.33;36.00;;;;;27.08;61.98;100216.30;110484;1264;14450;-48
2022/08/16 09:29:07;;;;;;;;;36.50;33.50;;;;;27.18;61.84;100212.13;110514;1264;14067;-51
2022/08/16 09:31:34;;;;;;;;;34.00;33.67;;;;;27.16;61.62;100216.75;110488;1264;15314;-53
2022/08/16 09:34:01;;;;;;;;;36.50;34.50;;;;;27.38;61.50;100214.98;110508;1265;13239;-51
2022/08/16 09:36:29;;;;;;;;;36.33;33.00;;;;;27.55;60.97;100214.77;110569;1265;15546;-50
2022/08/16 09:38:56;;;;;;;;;38.00;34.33;;;;;27.48;61.29;100213.27;110468;1264;14542;-48
2022/08/16 09:41:23;;;;;;;;;38.00;34.00;;;;;27.19;62.12;100214.02;110446;1264;15086;-48
2022/08/16 09:43:51;;;;;;;;;33.67;30.00;;;;;26.94;62.96;100215.64;110456;1264;14407;-46
2022/08/16 09:46:18;;;;;;;;;37.33;33.67;;;;;26.77;63.63;100218.40;110539;1264;13205;-49
2022/08/16 09:48:45;;;;;;;;;35.67;32.00;;;;;26.70;64.01;100215.98;110458;1264;15012;-48
2022/08/16 09:51:12;;;;;;;;;32.67;31.00;;;;;26.68;64.36;100218.33;110493;1264;14582;-48
2022/08/16 09:53:40;;;;;;;;;34.67;32.00;;;;;26.67;64.60;100215.55;110508;1264;15397;-48
2022/08/16 09:56:07;;;;;;;;;32.00;29.67;;;;;26.64;64.70;100215.46;110504;1264;14733;-50
2022/08/16 09:58:35;;;;;;;;;35.00;30.00;;;;;26.60;64.91;100212.41;110445;1264;14953;-50
2022/08/16 10:01:02;;;;;;;;;33.67;29.00;;;;;26.57;64.99;100214.56;110507;1265;11820;-48
2022/08/16 10:03:29;;;;;;;;;28.00;26.00;;;;;26.55;65.08;100209.67;110426;1264;14591;-48
2022/08/16 10:05:56;;;;;;;;;33.33;28.33;;;;;26.51;65.27;100211.38;110469;1265;14256;-47
2022/08/16 10:08:24;;;;;;;;;31.33;29.67;;;;;26.47;65.51;100214.79;110484;1265;14447;-48
2022/08/16 10:13:36;;;;;;;;;28.00;28.00;;;;;26.48;65.62;100222.11;110492;1264;14778;-50
2022/08/16 10:16:04;;;;;;;;;28.33;26.00;;;;;26.47;65.59;100223.18;110539;1264;18184;-51
2022/08/16 10:18:34;;;;;;;;;27.00;27.00;;;;;26.46;65.60;100218.21;110493;1265;15271;-47
2022/08/16 10:21:01;;;;;;;;;30.33;27.33;;;;;26.45;65.58;100219.69;110488;1265;14984;-47
2022/08/16 10:23:29;;;;;;;;;29.00;24.67;;;;;26.45;65.60;100222.69;110490;1264;14447;-48
2022/08/16 10:25:56;;;;;;;;;27.33;26.33;;;;;26.43;65.69;100217.45;110481;1265;13096;-48
2022/08/16 10:28:24;;;;;;;;;30.00;26.00;;;;;26.43;65.63;100215.58;110529;1265;13525;-47
2022/08/16 10:30:51;;;;;;;;;31.67;28.67;;;;;26.43;65.56;100219.20;110488;1263;14436;-47
2022/08/16 10:33:18;;;;;;;;;26.67;26.00;;;;;26.41;65.62;100216.21;110463;1264;14726;-49
2022/08/16 10:35:45;;;;;;;;;28.33;27.00;;;;;26.40;65.60;100218.32;110486;1265;14533;-48
2022/08/16 10:38:13;;;;;;;;;28.33;26.33;;;;;26.38;65.62;100215.05;110492;1264;14513;-48
2022/08/16 10:40:40;;;;;;;;;25.67;25.00;;;;;26.36;65.65;100212.55;110397;1265;15711;-49
2022/08/16 10:43:07;;;;;;;;;24.00;23.00;;;;;26.36;65.59;100220.29;110490;1264;17263;-50
2022/08/16 10:45:35;;;;;;;;;27.50;25.50;;;;;26.35;65.58;100219.63;110503;1262;13164;-47
2022/08/16 10:48:02;;;;;;;;;29.00;26.00;;;;;26.36;65.52;100213.26;110481;1265;14518;-47
2022/08/16 10:50:29;;;;;;;;;29.00;25.33;;;;;26.36;65.54;100213.31;110493;1264;14831;-48
2022/08/16 10:52:58;;;;;;;;;26.00;24.67;;;;;26.36;65.54;100210.02;110475;1265;14979;-47
2022/08/16 10:55:25;;;;;;;;;25.67;24.33;;;;;26.36;65.49;100206.16;110492;1264;10424;-49
2022/08/16 10:57:52;;;;;;;;;26.33;24.00;;;;;26.36;65.45;100210.73;110435;1264;15146;-44
2022/08/16 11:00:20;;;;;;;;;24.50;24.00;;;;;26.33;65.48;100204.94;110490;1265;13787;-41
2022/08/16 11:02:47;;;;;;;;;24.33;22.67;;;;;26.33;65.52;100206.59;110479;1264;14627;-46
2022/08/16 11:05:15;;;;;;;;;23.67;21.00;;;;;26.33;65.48;100203.00;110478;1264;17307;-48